Time;durP1;ratioP1;P1;durP2;ratioP2;P2;SDS_P1;SDS_P2;PMS_P1;PMS_P2;Temp;Humidity;BMP_temperature;BMP_pressure;BME280_temperature;BME280_humidity;BME280_pressure;Samples;Min_cycle;Max_cycle;Signal;HPM_P1;HPM_P2
2022/05/07 00:01:46;;;;;;;5.20;2.78;;;;;;;;;;5027521;28;20113;-79
2022/05/07 00:04:12;;;;;;;4.72;3.35;;;;;;;;;;5044214;28;20400;-79
2022/05/07 00:06:37;;;;;;;6.50;4.15;;;;;;;;;;5027441;28;20408;-79
2022/05/07 00:09:03;;;;;;;4.53;3.03;;;;;;;;;;5010775;28;20455;-79
2022/05/07 00:11:28;;;;;;;4.63;3.17;;;;;;;;;;5026355;28;20064;-79
2022/05/07 00:13:54;;;;;;;5.55;3.70;;;;;;;;;;5027420;28;20065;-79
2022/05/07 00:19:03;;;;;;;4.47;3.20;;;;;;;;;;5011022;28;20034;-79
2022/05/07 00:21:28;;;;;;;6.35;3.88;;;;;;;;;;4994573;28;20420;-79
2022/05/07 00:23:54;;;;;;;6.15;3.42;;;;;;;;;;4994360;28;20061;-78
2022/05/07 00:26:19;;;;;;;4.65;3.20;;;;;;;;;;4994201;28;20042;-79
2022/05/07 00:28:45;;;;;;;4.65;3.47;;;;;;;;;;4994486;28;20073;-79
2022/05/07 00:31:11;;;;;;;6.47;4.15;;;;;;;;;;5010737;28;20121;-79
2022/05/07 00:33:36;;;;;;;4.38;2.72;;;;;;;;;;4994390;28;20065;-78
2022/05/07 00:36:02;;;;;;;4.93;3.22;;;;;;;;;;5011018;28;20408;-80
2022/05/07 00:38:28;;;;;;;4.75;3.78;;;;;;;;;;4994239;28;20485;-78
2022/05/07 00:40:53;;;;;;;5.28;3.58;;;;;;;;;;4977438;28;20042;-79
2022/05/07 00:43:19;;;;;;;4.25;3.13;;;;;;;;;;4978290;28;20230;-79
2022/05/07 00:45:47;;;;;;;4.82;3.10;;;;;;;;;;4978076;28;20046;-78
2022/05/07 00:48:13;;;;;;;4.53;3.25;;;;;;;;;;4994270;28;20034;-78
2022/05/07 00:53:24;;;;;;;5.75;3.60;;;;;;;;;;4997153;28;20034;-79
2022/05/07 00:55:49;;;;;;;5.85;4.05;;;;;;;;;;4993778;28;20041;-79
2022/05/07 00:58:15;;;;;;;5.65;3.55;;;;;;;;;;5026895;28;20034;-79
2022/05/07 01:00:43;;;;;;;5.65;3.28;;;;;;;;;;5010532;28;20065;-79
2022/05/07 01:03:09;;;;;;;5.00;3.42;;;;;;;;;;5013751;28;20555;-79
2022/05/07 01:05:35;;;;;;;4.07;2.75;;;;;;;;;;5013566;28;20116;-79
2022/05/07 01:08:00;;;;;;;4.60;3.38;;;;;;;;;;4997657;28;20041;-78
2022/05/07 01:10:27;;;;;;;4.93;3.13;;;;;;;;;;4996979;28;20045;-79
2022/05/07 01:12:54;;;;;;;4.80;2.83;;;;;;;;;;4994484;28;20527;-80
2022/05/07 01:15:19;;;;;;;5.07;3.30;;;;;;;;;;4994144;28;20048;-79
2022/05/07 01:17:45;;;;;;;5.75;3.67;;;;;;;;;;4977697;28;20038;-79
2022/05/07 01:20:12;;;;;;;6.32;3.40;;;;;;;;;;4977647;28;20053;-79
2022/05/07 01:22:38;;;;;;;5.40;4.10;;;;;;;;;;4978441;28;20038;-79
2022/05/07 01:25:04;;;;;;;4.32;3.30;;;;;;;;;;4980659;28;20038;-79
2022/05/07 01:27:30;;;;;;;4.93;3.60;;;;;;;;;;4981334;28;20025;-79
2022/05/07 01:29:56;;;;;;;4.97;3.15;;;;;;;;;;4982033;28;20551;-79
2022/05/07 01:32:22;;;;;;;4.88;3.42;;;;;;;;;;4997915;28;20038;-78
2022/05/07 01:34:48;;;;;;;4.15;3.47;;;;;;;;;;4997908;28;20037;-79
2022/05/07 01:37:13;;;;;;;4.65;3.08;;;;;;;;;;4997720;28;20041;-79
2022/05/07 01:39:38;;;;;;;3.67;2.80;;;;;;;;;;5013114;28;20041;-78
2022/05/07 01:42:04;;;;;;;4.15;2.78;;;;;;;;;;4981125;28;20057;-79
2022/05/07 01:44:29;;;;;;;4.72;3.33;;;;;;;;;;4981471;28;20389;-79
2022/05/07 01:49:39;;;;;;;4.93;3.35;;;;;;;;;;5002090;28;20085;-79
2022/05/07 01:52:05;;;;;;;4.68;3.10;;;;;;;;;;4980893;28;20030;-79
2022/05/07 01:54:30;;;;;;;4.63;3.25;;;;;;;;;;4964607;28;20088;-79
2022/05/07 01:56:55;;;;;;;4.95;3.38;;;;;;;;;;4996878;28;20046;-79
2022/05/07 01:59:21;;;;;;;6.05;3.60;;;;;;;;;;5029918;28;20420;-79
2022/05/07 02:01:46;;;;;;;5.25;3.22;;;;;;;;;;5013200;28;20057;-79
2022/05/07 02:04:12;;;;;;;4.50;3.10;;;;;;;;;;5030108;28;20033;-79
2022/05/07 02:06:37;;;;;;;5.60;4.20;;;;;;;;;;5013446;28;20100;-79
2022/05/07 02:09:03;;;;;;;4.68;3.33;;;;;;;;;;5029181;28;20416;-79
2022/05/07 02:11:29;;;;;;;6.03;3.38;;;;;;;;;;5013045;28;20392;-79
2022/05/07 02:13:54;;;;;;;4.57;3.50;;;;;;;;;;5013242;28;20116;-78
2022/05/07 02:16:20;;;;;;;4.70;3.22;;;;;;;;;;4996637;28;20411;-79
2022/05/07 02:18:46;;;;;;;4.93;3.33;;;;;;;;;;4996584;28;20049;-79
2022/05/07 02:21:12;;;;;;;4.45;3.30;;;;;;;;;;5013023;28;20037;-79
2022/05/07 02:23:37;;;;;;;4.10;3.00;;;;;;;;;;4996235;28;20113;-79
2022/05/07 02:26:02;;;;;;;4.45;3.55;;;;;;;;;;4980093;28;20034;-79
2022/05/07 02:28:28;;;;;;;3.70;2.90;;;;;;;;;;4996908;28;20100;-79
2022/05/07 02:30:53;;;;;;;6.47;3.65;;;;;;;;;;4996575;28;20443;-79
2022/05/07 02:33:19;;;;;;;4.88;3.53;;;;;;;;;;4996382;28;20557;-79
2022/05/07 02:35:45;;;;;;;4.30;3.33;;;;;;;;;;4996862;28;20390;-79
2022/05/07 02:38:10;;;;;;;5.05;3.47;;;;;;;;;;5012383;28;20615;-79
2022/05/07 02:43:20;;;;;;;5.00;3.65;;;;;;;;;;4999129;28;20046;-79
2022/05/07 02:45:45;;;;;;;4.88;3.10;;;;;;;;;;4996654;28;20473;-79
2022/05/07 02:48:11;;;;;;;5.25;3.50;;;;;;;;;;4996085;28;20045;-79
2022/05/07 02:50:36;;;;;;;4.82;3.17;;;;;;;;;;4979735;28;20057;-79
2022/05/07 02:53:02;;;;;;;5.15;3.10;;;;;;;;;;4995913;28;20033;-78
2022/05/07 02:55:27;;;;;;;5.22;3.70;;;;;;;;;;4996060;28;20034;-79
2022/05/07 02:57:52;;;;;;;5.63;3.70;;;;;;;;;;5028491;28;20131;-79
2022/05/07 03:00:18;;;;;;;5.20;3.63;;;;;;;;;;4996349;28;20038;-79
2022/05/07 03:02:43;;;;;;;5.47;3.25;;;;;;;;;;5028819;28;20034;-79
2022/05/07 03:05:09;;;;;;;4.88;3.00;;;;;;;;;;5028263;28;20095;-79
2022/05/07 03:07:34;;;;;;;4.47;3.10;;;;;;;;;;5028698;28;20112;-79
2022/05/07 03:10:00;;;;;;;6.05;3.28;;;;;;;;;;5011739;28;20116;-79
2022/05/07 03:12:27;;;;;;;4.43;3.40;;;;;;;;;;5011980;28;20046;-79
2022/05/07 03:14:52;;;;;;;4.28;3.38;;;;;;;;;;5011767;28;20037;-79
2022/05/07 03:17:18;;;;;;;5.22;3.20;;;;;;;;;;4995650;28;20046;-79
2022/05/07 03:19:43;;;;;;;5.03;3.20;;;;;;;;;;5012150;28;20067;-79
2022/05/07 03:22:09;;;;;;;5.47;3.60;;;;;;;;;;4995627;28;20484;-79
2022/05/07 03:24:38;;;;;;;4.20;2.92;;;;;;;;;;4995689;28;20037;-79
2022/05/07 03:27:04;;;;;;;4.38;3.75;;;;;;;;;;4995594;28;20084;-79
2022/05/07 03:29:30;;;;;;;4.35;3.10;;;;;;;;;;4995667;28;20049;-79
2022/05/07 03:31:55;;;;;;;5.05;3.55;;;;;;;;;;4979356;28;20038;-79
2022/05/07 03:34:21;;;;;;;5.13;3.55;;;;;;;;;;4979023;28;20408;-79
2022/05/07 03:36:47;;;;;;;6.57;4.07;;;;;;;;;;5011583;28;20041;-79
2022/05/07 03:39:13;;;;;;;5.43;3.10;;;;;;;;;;5011083;28;20030;-79
2022/05/07 03:41:39;;;;;;;4.20;3.25;;;;;;;;;;4978908;28;20562;-79
2022/05/07 03:44:04;;;;;;;5.68;3.38;;;;;;;;;;4979295;28;20042;-79
2022/05/07 03:46:30;;;;;;;5.47;3.53;;;;;;;;;;4994503;28;20042;-79
2022/05/07 03:48:55;;;;;;;5.28;3.50;;;;;;;;;;4978529;28;20048;-79
2022/05/07 03:51:21;;;;;;;4.75;3.33;;;;;;;;;;4994846;28;20100;-78
2022/05/07 03:53:47;;;;;;;5.15;3.33;;;;;;;;;;4994999;28;20057;-79
2022/05/07 03:56:13;;;;;;;5.00;3.47;;;;;;;;;;4978481;28;20121;-79
2022/05/07 03:58:39;;;;;;;4.28;3.40;;;;;;;;;;5027884;28;20061;-79
2022/05/07 04:01:04;;;;;;;4.93;3.60;;;;;;;;;;5027527;28;20080;-79
2022/05/07 04:03:30;;;;;;;4.43;3.38;;;;;;;;;;5011027;28;20519;-79
2022/05/07 04:05:57;;;;;;;7.10;3.45;;;;;;;;;;5010737;28;20045;-79
2022/05/07 04:08:23;;;;;;;4.70;3.38;;;;;;;;;;5010959;28;20041;-79
2022/05/07 04:10:48;;;;;;;4.22;3.08;;;;;;;;;;5010525;28;20033;-79
2022/05/07 04:13:15;;;;;;;4.35;3.38;;;;;;;;;;5013871;28;20460;-79
2022/05/07 04:15:43;;;;;;;6.43;3.75;;;;;;;;;;5027880;28;20594;-79
2022/05/07 04:18:08;;;;;;;4.40;3.08;;;;;;;;;;4994530;28;20049;-79
2022/05/07 04:20:34;;;;;;;4.00;3.20;;;;;;;;;;4995277;28;20408;-79
2022/05/07 04:22:59;;;;;;;4.50;3.45;;;;;;;;;;5010914;28;20053;-79
2022/05/07 04:25:25;;;;;;;4.40;3.35;;;;;;;;;;4994274;28;20034;-79
2022/05/07 04:27:51;;;;;;;5.40;3.50;;;;;;;;;;4994624;28;20057;-78
2022/05/07 04:30:16;;;;;;;4.18;3.30;;;;;;;;;;5011017;28;20048;-79
2022/05/07 04:32:42;;;;;;;5.25;3.75;;;;;;;;;;5010501;28;20042;-79
2022/05/07 04:35:07;;;;;;;4.38;3.30;;;;;;;;;;4994250;28;20045;-79
2022/05/07 04:37:32;;;;;;;4.22;2.90;;;;;;;;;;5010477;28;20404;-79
2022/05/07 04:39:58;;;;;;;5.38;3.95;;;;;;;;;;4993999;28;20117;-79
2022/05/07 04:42:24;;;;;;;4.65;3.22;;;;;;;;;;4994434;28;20077;-79
2022/05/07 04:44:49;;;;;;;4.40;3.10;;;;;;;;;;4978358;28;20049;-79
2022/05/07 04:47:15;;;;;;;4.85;3.72;;;;;;;;;;4993759;28;20046;-78
2022/05/07 04:49:41;;;;;;;5.05;3.33;;;;;;;;;;4994049;28;20034;-79
2022/05/07 04:52:06;;;;;;;4.30;3.40;;;;;;;;;;4994268;28;20065;-79
2022/05/07 04:54:32;;;;;;;4.13;3.08;;;;;;;;;;4978159;28;20026;-79
2022/05/07 04:56:57;;;;;;;3.78;3.05;;;;;;;;;;4993986;28;20033;-79
2022/05/07 04:59:23;;;;;;;4.32;3.60;;;;;;;;;;4996572;28;20482;-78
2022/05/07 05:01:48;;;;;;;5.05;3.10;;;;;;;;;;5030713;28;20045;-79
2022/05/07 05:04:14;;;;;;;4.53;3.47;;;;;;;;;;5031132;28;20038;-78
2022/05/07 05:06:39;;;;;;;4.60;3.53;;;;;;;;;;5030853;28;20394;-79
2022/05/07 05:09:06;;;;;;;3.83;3.13;;;;;;;;;;5014160;28;20381;-78
2022/05/07 05:11:31;;;;;;;4.85;4.00;;;;;;;;;;5013967;28;20038;-79
2022/05/07 05:13:57;;;;;;;4.47;3.28;;;;;;;;;;5023007;28;20080;-79
2022/05/07 05:16:22;;;;;;;4.43;3.42;;;;;;;;;;4997577;28;20057;-79
2022/05/07 05:18:48;;;;;;;5.15;3.40;;;;;;;;;;4998118;28;20045;-79
2022/05/07 05:21:13;;;;;;;3.72;3.15;;;;;;;;;;5030812;28;20042;-79
2022/05/07 05:23:40;;;;;;;4.30;3.45;;;;;;;;;;5014015;28;20109;-78
2022/05/07 05:26:05;;;;;;;3.95;3.08;;;;;;;;;;5013975;28;20045;-79
2022/05/07 05:28:31;;;;;;;4.40;3.35;;;;;;;;;;5014110;28;20045;-79
2022/05/07 05:30:56;;;;;;;4.70;3.28;;;;;;;;;;4997500;28;20420;-78
2022/05/07 05:33:22;;;;;;;4.15;3.20;;;;;;;;;;5013852;28;20034;-78
2022/05/07 05:35:47;;;;;;;4.55;3.38;;;;;;;;;;4981580;28;20113;-79
2022/05/07 05:38:15;;;;;;;5.03;3.38;;;;;;;;;;5013835;28;20026;-78
2022/05/07 05:40:41;;;;;;;3.45;2.70;;;;;;;;;;5013579;28;20049;-79
2022/05/07 05:43:07;;;;;;;5.05;3.05;;;;;;;;;;4981590;28;20029;-79
2022/05/07 05:45:32;;;;;;;3.67;2.72;;;;;;;;;;4980983;28;20091;-79
2022/05/07 05:47:58;;;;;;;3.92;3.00;;;;;;;;;;4980914;28;20041;-78
2022/05/07 05:50:23;;;;;;;4.50;3.10;;;;;;;;;;4997384;28;20503;-79
2022/05/07 05:52:49;;;;;;;4.38;3.50;;;;;;;;;;4997491;28;20484;-79
2022/05/07 05:55:14;;;;;;;4.55;3.42;;;;;;;;;;4981008;28;20038;-79
2022/05/07 05:57:39;;;;;;;4.32;2.70;;;;;;;;;;5013553;28;20105;-79
2022/05/07 06:00:08;;;;;;;4.15;3.08;;;;;;;;;;5029766;28;20404;-79
2022/05/07 06:02:33;;;;;;;4.95;3.38;;;;;;;;;;5029932;28;20040;-79
2022/05/07 06:04:59;;;;;;;6.13;3.65;;;;;;;;;;5013558;28;20034;-78
2022/05/07 06:07:24;;;;;;;5.30;3.05;;;;;;;;;;5029693;28;20034;-78
2022/05/07 06:09:50;;;;;;;3.83;2.90;;;;;;;;;;5029166;28;20085;-79
2022/05/07 06:12:15;;;;;;;4.32;3.38;;;;;;;;;;5029729;28;20099;-79
2022/05/07 06:14:41;;;;;;;3.53;2.70;;;;;;;;;;5029327;28;20072;-78
2022/05/07 06:17:07;;;;;;;5.35;3.47;;;;;;;;;;4996837;28;20396;-78
2022/05/07 06:19:32;;;;;;;4.20;3.03;;;;;;;;;;4996702;28;20053;-78
2022/05/07 06:21:57;;;;;;;3.53;3.05;;;;;;;;;;5012991;28;20061;-78
2022/05/07 06:29:51;;;;;;;4.38;3.33;;;;;;;;;;5012638;28;20033;-78
2022/05/07 06:32:18;;;;;;;3.95;2.70;;;;;;;;;;4996550;28;20523;-78
2022/05/07 06:34:43;;;;;;;4.57;3.35;;;;;;;;;;5012756;28;20390;-78
2022/05/07 06:37:09;;;;;;;6.13;3.25;;;;;;;;;;4980120;28;20120;-79
2022/05/07 06:39:34;;;;;;;5.15;3.15;;;;;;;;;;5012877;28;20515;-79
2022/05/07 06:42:00;;;;;;;5.15;2.97;;;;;;;;;;4979888;28;20032;-79
2022/05/07 06:44:25;;;;;;;4.07;3.08;;;;;;;;;;4979778;28;20084;-79
2022/05/07 06:46:51;;;;;;;4.53;3.42;;;;;;;;;;4996429;28;20527;-79
2022/05/07 06:49:18;;;;;;;4.07;3.25;;;;;;;;;;4979855;28;20070;-79
2022/05/07 06:51:44;;;;;;;3.67;2.75;;;;;;;;;;4980314;28;20496;-79
2022/05/07 06:54:09;;;;;;;4.25;3.38;;;;;;;;;;4980474;28;20121;-79
2022/05/07 06:56:35;;;;;;;5.13;3.40;;;;;;;;;;4979830;28;20061;-78
2022/05/07 06:59:01;;;;;;;4.50;3.25;;;;;;;;;;5012392;28;20491;-78
2022/05/07 07:01:27;;;;;;;4.55;3.28;;;;;;;;;;5023182;28;20411;-78
2022/05/07 07:03:52;;;;;;;4.00;3.05;;;;;;;;;;5011554;28;20029;-79
2022/05/07 07:06:18;;;;;;;4.05;2.95;;;;;;;;;;4994773;28;20515;-78
2022/05/07 07:08:43;;;;;;;3.55;3.08;;;;;;;;;;5028536;28;20038;-78
2022/05/07 07:11:08;;;;;;;3.88;3.20;;;;;;;;;;5027443;28;20463;-79
2022/05/07 07:13:34;;;;;;;5.00;3.55;;;;;;;;;;5028081;28;20474;-79
2022/05/07 07:15:59;;;;;;;4.18;2.80;;;;;;;;;;4995529;28;20104;-79
2022/05/07 07:18:25;;;;;;;5.07;3.50;;;;;;;;;;4995745;28;20089;-78
2022/05/07 07:20:50;;;;;;;5.15;3.08;;;;;;;;;;5011643;28;20092;-79
2022/05/07 07:23:16;;;;;;;4.38;3.33;;;;;;;;;;4995117;28;20184;-79
2022/05/07 07:25:42;;;;;;;4.38;3.08;;;;;;;;;;4995535;28;20065;-78
2022/05/07 07:28:08;;;;;;;4.45;3.00;;;;;;;;;;5010903;28;20041;-79
2022/05/07 07:30:34;;;;;;;4.90;2.90;;;;;;;;;;4979323;28;20500;-79
2022/05/07 07:33:00;;;;;;;3.60;2.70;;;;;;;;;;4995507;28;20030;-78
2022/05/07 07:35:25;;;;;;;4.70;3.40;;;;;;;;;;4995541;28;20030;-79
2022/05/07 07:37:51;;;;;;;4.80;3.22;;;;;;;;;;4979155;28;20057;-79
2022/05/07 07:40:16;;;;;;;3.85;2.85;;;;;;;;;;4978913;28;20133;-78
2022/05/07 07:42:42;;;;;;;4.90;3.15;;;;;;;;;;5011518;28;20054;-79
2022/05/07 07:48:02;;;;;;;6.10;3.10;;;;;;;;;;4997823;28;20040;-79
2022/05/07 07:50:31;;;;;;;4.05;2.92;;;;;;;;;;4996161;28;20050;-79
2022/05/07 07:53:01;;;;;;;4.40;2.80;;;;;;;;;;5011591;28;20500;-79
2022/05/07 07:55:27;;;;;;;6.00;3.10;;;;;;;;;;5007808;28;20040;-79
2022/05/07 07:57:59;;;;;;;4.82;2.83;;;;;;;;;;5008093;28;20038;-79
2022/05/07 08:00:25;;;;;;;5.45;2.97;;;;;;;;;;5007385;28;20030;-78
2022/05/07 08:02:55;;;;;;;5.43;3.35;;;;;;;;;;5004936;28;20445;-79
2022/05/07 08:05:22;;;;;;;4.05;2.60;;;;;;;;;;4976020;28;20038;-79
2022/05/07 08:13:15;;;;;;;3.90;2.50;;;;;;;;;;4983843;28;20065;-79
2022/05/07 08:15:42;;;;;;;5.93;2.95;;;;;;;;;;5011012;28;20038;-79
2022/05/07 08:18:07;;;;;;;3.92;2.75;;;;;;;;;;4994586;28;20041;-79
2022/05/07 08:20:32;;;;;;;5.38;2.95;;;;;;;;;;4978459;28;20045;-79
2022/05/07 08:22:58;;;;;;;6.90;3.03;;;;;;;;;;4994377;28;20435;-78
2022/05/07 08:25:23;;;;;;;5.10;2.95;;;;;;;;;;4994510;28;20065;-79
2022/05/07 08:27:49;;;;;;;4.53;3.00;;;;;;;;;;4994229;28;20046;-79
2022/05/07 08:30:14;;;;;;;3.50;2.50;;;;;;;;;;4978493;28;20408;-79
2022/05/07 08:32:39;;;;;;;5.10;2.90;;;;;;;;;;4994264;28;20037;-79
2022/05/07 08:35:06;;;;;;;4.30;2.70;;;;;;;;;;4994299;28;20065;-78
2022/05/07 08:37:31;;;;;;;4.15;2.90;;;;;;;;;;4994404;28;20030;-79
2022/05/07 08:40:01;;;;;;;5.80;3.33;;;;;;;;;;4993697;28;20053;-79
2022/05/07 08:42:30;;;;;;;3.45;2.30;;;;;;;;;;4995974;28;20455;-79
2022/05/07 08:44:56;;;;;;;5.97;2.92;;;;;;;;;;4994572;28;20104;-78
2022/05/07 08:47:25;;;;;;;4.30;2.80;;;;;;;;;;4978349;28;20058;-79
2022/05/07 08:49:50;;;;;;;4.40;2.90;;;;;;;;;;4978937;28;20516;-78
2022/05/07 08:52:17;;;;;;;4.40;2.90;;;;;;;;;;4977763;28;20033;-79
2022/05/07 08:54:45;;;;;;;4.95;3.22;;;;;;;;;;4994392;28;20072;-79
2022/05/07 08:57:11;;;;;;;5.75;2.60;;;;;;;;;;4978013;28;20487;-79
2022/05/07 08:59:38;;;;;;;5.00;2.63;;;;;;;;;;5027313;28;20033;-78
2022/05/07 09:02:04;;;;;;;4.47;2.80;;;;;;;;;;5026859;28;20037;-79
2022/05/07 09:04:30;;;;;;;5.25;3.33;;;;;;;;;;5010399;28;20038;-79
2022/05/07 09:07:03;;;;;;;5.00;3.08;;;;;;;;;;5026441;28;20068;-79
2022/05/07 09:09:31;;;;;;;4.20;2.20;;;;;;;;;;5026548;28;20037;-79
2022/05/07 09:11:57;;;;;;;4.20;2.72;;;;;;;;;;5010516;28;20042;-79
2022/05/07 09:14:29;;;;;;;4.80;2.15;;;;;;;;;;5022217;28;20041;-78
2022/05/07 09:16:57;;;;;;;;;;;;;;;;;;4994568;28;20040;-79
2022/05/07 09:19:23;;;;;;;4.05;2.28;;;;;;;;;;5043035;28;19921;-79
2022/05/07 09:21:49;;;;;;;3.72;2.50;;;;;;;;;;5010551;28;20049;-79
2022/05/07 09:24:15;;;;;;;3.38;2.30;;;;;;;;;;5010072;28;20045;-78
2022/05/07 09:26:43;;;;;;;3.72;2.25;;;;;;;;;;5010143;28;20057;-79
2022/05/07 09:29:10;;;;;;;3.47;2.33;;;;;;;;;;5010573;28;20049;-78
2022/05/07 09:31:36;;;;;;;2.60;1.80;;;;;;;;;;5010466;28;20117;-79
2022/05/07 09:36:55;;;;;;;3.47;2.20;;;;;;;;;;5010937;28;20113;-79
2022/05/07 09:39:20;;;;;;;3.70;2.53;;;;;;;;;;4993402;28;20486;-79
2022/05/07 09:41:52;;;;;;;4.88;2.53;;;;;;;;;;4993771;28;20117;-79
2022/05/07 09:44:19;;;;;;;4.40;2.88;;;;;;;;;;5010771;28;20560;-79
2022/05/07 09:46:44;;;;;;;4.03;2.78;;;;;;;;;;4981940;28;20046;-79
2022/05/07 09:49:10;;;;;;;3.45;2.58;;;;;;;;;;4981027;28;20059;-79
2022/05/07 09:51:35;;;;;;;4.22;2.80;;;;;;;;;;4980426;28;20038;-78
2022/05/07 09:59:31;;;;;;;2.83;2.10;;;;;;;;;;5014292;28;20034;-79
2022/05/07 10:01:59;;;;;;;2.75;1.92;;;;;;;;;;5013365;28;20034;-79
2022/05/07 10:04:24;;;;;;;4.72;2.50;;;;;;;;;;5029769;28;20037;-78
2022/05/07 10:07:04;;;;;;;4.05;2.65;;;;;;;;;;5029771;28;20140;-79
2022/05/07 10:10:28;;;;;;;3.45;2.13;;;;;;;;;;5044882;28;20045;-79
2022/05/07 10:12:55;;;;;;;3.65;2.20;;;;;;;;;;5011851;28;20551;-78
2022/05/07 10:15:23;;;;;;;3.60;2.28;;;;;;;;;;4979738;28;20048;-79
2022/05/07 10:18:07;;;;;;;4.57;2.22;;;;;;;;;;4986606;28;20046;-79
2022/05/07 10:20:43;;;;;;;4.05;2.60;;;;;;;;;;4997357;28;20130;-79
2022/05/07 10:23:16;;;;;;;3.45;2.28;;;;;;;;;;4996878;28;20026;-79
2022/05/07 10:25:45;;;;;;;4.03;2.15;;;;;;;;;;4996713;28;20117;-78
2022/05/07 10:28:14;;;;;;;4.22;2.58;;;;;;;;;;4981423;28;20582;-79
2022/05/07 10:30:47;;;;;;;2.72;2.10;;;;;;;;;;4996828;28;20586;-78
2022/05/07 10:33:12;;;;;;;4.40;2.60;;;;;;;;;;4980603;28;20034;-78
2022/05/07 10:35:52;;;;;;;3.50;2.20;;;;;;;;;;5012381;28;20069;-79
2022/05/07 10:38:24;;;;;;;4.50;2.30;;;;;;;;;;4980262;28;20033;-79
2022/05/07 10:40:54;;;;;;;5.07;2.30;;;;;;;;;;5012498;28;20112;-79
2022/05/07 10:43:27;;;;;;;3.20;2.05;;;;;;;;;;4980322;28;20037;-78
2022/05/07 10:45:59;;;;;;;4.30;2.63;;;;;;;;;;4996873;28;20030;-79
2022/05/07 10:48:25;;;;;;;2.88;1.88;;;;;;;;;;5012480;28;20567;-78
2022/05/07 10:50:51;;;;;;;3.25;2.17;;;;;;;;;;5012028;28;20057;-79
2022/05/07 10:53:17;;;;;;;3.83;2.08;;;;;;;;;;4980164;28;20030;-79
2022/05/07 10:55:42;;;;;;;3.83;2.10;;;;;;;;;;4991913;28;20489;-79
2022/05/07 10:58:08;;;;;;;3.17;2.00;;;;;;;;;;5025199;28;20038;-79
2022/05/07 11:00:34;;;;;;;2.78;1.80;;;;;;;;;;5009352;28;20038;-79
2022/05/07 11:03:00;;;;;;;4.45;2.30;;;;;;;;;;5028790;28;20030;-78
2022/05/07 11:05:32;;;;;;;3.97;2.20;;;;;;;;;;5012296;28;20407;-78
2022/05/07 11:07:59;;;;;;;3.35;1.85;;;;;;;;;;5028642;28;20775;-78
2022/05/07 11:10:24;;;;;;;2.95;2.08;;;;;;;;;;5012097;28;20056;-78
2022/05/07 11:12:50;;;;;;;4.18;2.05;;;;;;;;;;5028411;28;20033;-79
2022/05/07 11:15:23;;;;;;;3.65;1.88;;;;;;;;;;4979420;28;20125;-79
2022/05/07 11:17:48;;;;;;;2.90;1.90;;;;;;;;;;5011837;28;20030;-79
2022/05/07 11:20:14;;;;;;;3.08;1.90;;;;;;;;;;5011551;28;20050;-79
2022/05/07 11:22:40;;;;;;;2.88;1.90;;;;;;;;;;5011922;28;20030;-79
2022/05/07 11:25:05;;;;;;;2.75;1.98;;;;;;;;;;5011931;28;20408;-79
2022/05/07 11:27:32;;;;;;;4.18;1.92;;;;;;;;;;5011767;28;20038;-79
2022/05/07 11:30:03;;;;;;;2.97;1.55;;;;;;;;;;5011793;28;20397;-79
2022/05/07 11:32:38;;;;;;;2.70;1.95;;;;;;;;;;5011918;28;20041;-79
2022/05/07 11:35:04;;;;;;;3.08;2.10;;;;;;;;;;4995450;28;20069;-79
2022/05/07 11:37:40;;;;;;;4.45;2.22;;;;;;;;;;4995352;28;20477;-79
2022/05/07 11:40:07;;;;;;;3.85;2.10;;;;;;;;;;4978754;28;20404;-79
2022/05/07 11:42:38;;;;;;;2.95;1.90;;;;;;;;;;4995482;28;20114;-79
2022/05/07 11:47:56;;;;;;;3.17;1.70;;;;;;;;;;4997752;28;20034;-79
2022/05/07 11:50:29;;;;;;;3.58;2.00;;;;;;;;;;5011266;28;20108;-79
2022/05/07 11:52:55;;;;;;;4.57;2.13;;;;;;;;;;4995271;28;20045;-79
2022/05/07 11:55:27;;;;;;;2.30;1.85;;;;;;;;;;4978762;28;20072;-79
2022/05/07 11:57:54;;;;;;;2.70;1.80;;;;;;;;;;4995478;28;20121;-79
2022/05/07 12:00:21;;;;;;;3.00;1.95;;;;;;;;;;5027913;28;20034;-79
2022/05/07 12:02:53;;;;;;;4.03;1.83;;;;;;;;;;5011243;28;20052;-79
2022/05/07 12:05:19;;;;;;;;;;;;;;;;;;5028045;28;20057;-78
2022/05/07 12:07:50;;;;;;;2.38;1.65;;;;;;;;;;5027128;28;19987;-78
2022/05/07 12:10:17;;;;;;;3.67;1.90;;;;;;;;;;5010593;28;20496;-79
2022/05/07 12:12:43;;;;;;;3.50;1.75;;;;;;;;;;5027067;28;20161;-80
2022/05/07 12:15:09;;;;;;;3.15;1.50;;;;;;;;;;4994979;28;20115;-79
2022/05/07 12:17:53;;;;;;;3.28;1.83;;;;;;;;;;4978180;28;20470;-79
2022/05/07 12:20:20;;;;;;;4.15;1.60;;;;;;;;;;4996825;28;20567;-79
2022/05/07 12:30:58;;;;;;;3.80;1.77;;;;;;;;;;5010753;28;20119;-79
2022/05/07 12:33:23;;;;;;;2.13;1.25;;;;;;;;;;4978413;28;20112;-79
2022/05/07 12:35:49;;;;;;;2.90;1.42;;;;;;;;;;5011143;28;20045;-79
2022/05/07 12:38:15;;;;;;;2.28;1.35;;;;;;;;;;4977086;28;20057;-79
2022/05/07 12:40:43;;;;;;;2.53;1.63;;;;;;;;;;5005326;28;20507;-79
2022/05/07 12:43:08;;;;;;;3.15;1.58;;;;;;;;;;5023103;28;20113;-78
2022/05/07 12:45:35;;;;;;;2.90;1.77;;;;;;;;;;5006997;28;20118;-79
2022/05/07 12:48:00;;;;;;;3.35;2.10;;;;;;;;;;5007392;28;20045;-78
2022/05/07 12:50:26;;;;;;;2.63;1.50;;;;;;;;;;5007574;28;20050;-79
2022/05/07 12:52:51;;;;;;;2.63;1.92;;;;;;;;;;5018089;28;20029;-79
2022/05/07 12:55:17;;;;;;;2.30;1.17;;;;;;;;;;5009661;28;20044;-79
2022/05/07 12:57:42;;;;;;;3.42;1.42;;;;;;;;;;5009106;28;20167;-79
2022/05/07 13:00:08;;;;;;;2.15;1.20;;;;;;;;;;5009945;28;20523;-79
2022/05/07 13:02:34;;;;;;;2.33;1.30;;;;;;;;;;5023671;28;20077;-79
2022/05/07 13:04:59;;;;;;;4.07;1.25;;;;;;;;;;5007472;28;20516;-79
2022/05/07 13:07:25;;;;;;;2.88;1.70;;;;;;;;;;5007229;28;20114;-79
2022/05/07 13:09:50;;;;;;;2.60;1.60;;;;;;;;;;5006555;28;20047;-79
2022/05/07 13:12:18;;;;;;;3.10;1.30;;;;;;;;;;5006960;28;20404;-79
2022/05/07 13:14:43;;;;;;;2.63;1.30;;;;;;;;;;5024528;28;20124;-79
2022/05/07 13:17:08;;;;;;;2.05;0.98;;;;;;;;;;4993889;28;20496;-79
2022/05/07 13:19:34;;;;;;;2.22;1.30;;;;;;;;;;4994001;28;20050;-79
2022/05/07 13:22:00;;;;;;;2.05;1.10;;;;;;;;;;5014336;28;20088;-79
2022/05/07 13:24:25;;;;;;;2.92;1.20;;;;;;;;;;4998241;28;20042;-79
2022/05/07 13:26:51;;;;;;;2.92;1.13;;;;;;;;;;5013992;28;20077;-79
2022/05/07 13:29:16;;;;;;;2.50;1.48;;;;;;;;;;5013764;28;20038;-79
2022/05/07 13:31:41;;;;;;;2.55;1.58;;;;;;;;;;5013887;28;21952;-79
2022/05/07 13:34:07;;;;;;;2.97;1.75;;;;;;;;;;4997906;28;20061;-80
2022/05/07 13:36:33;;;;;;;2.10;1.17;;;;;;;;;;4997366;28;20037;-79
2022/05/07 13:38:58;;;;;;;3.10;1.33;;;;;;;;;;5014161;28;20076;-79
2022/05/07 13:41:26;;;;;;;2.10;1.45;;;;;;;;;;4981020;28;20048;-80
2022/05/07 13:43:52;;;;;;;3.42;1.70;;;;;;;;;;4981946;28;20088;-79
2022/05/07 13:46:17;;;;;;;2.60;1.50;;;;;;;;;;5013614;28;20069;-79
2022/05/07 13:48:44;;;;;;;2.50;1.42;;;;;;;;;;4981632;28;20042;-79
2022/05/07 13:51:09;;;;;;;1.85;1.17;;;;;;;;;;4981469;28;20047;-79
2022/05/07 13:53:35;;;;;;;2.78;1.30;;;;;;;;;;4981041;28;20041;-79
2022/05/07 13:56:00;;;;;;;2.03;1.25;;;;;;;;;;4997019;28;20041;-79
2022/05/07 13:58:26;;;;;;;2.42;1.27;;;;;;;;;;5029868;28;20033;-79
2022/05/07 14:00:51;;;;;;;1.55;1.08;;;;;;;;;;5030181;28;20034;-79
2022/05/07 14:03:17;;;;;;;2.45;1.45;;;;;;;;;;5029786;28;20076;-79
2022/05/07 14:05:42;;;;;;;1.92;1.17;;;;;;;;;;5013216;28;20104;-79
2022/05/07 14:08:08;;;;;;;2.17;1.10;;;;;;;;;;5030091;28;20057;-79
2022/05/07 14:10:34;;;;;;;4.00;1.58;;;;;;;;;;5029371;28;20084;-79
2022/05/07 14:13:00;;;;;;;2.58;1.40;;;;;;;;;;5013078;28;20101;-78
2022/05/07 14:15:25;;;;;;;2.40;1.35;;;;;;;;;;4996920;28;20099;-79
2022/05/07 14:17:51;;;;;;;2.63;1.30;;;;;;;;;;5013208;28;20038;-78
2022/05/07 14:20:16;;;;;;;1.92;1.20;;;;;;;;;;5013192;28;20045;-79
2022/05/07 14:22:42;;;;;;;2.03;1.10;;;;;;;;;;4996998;28;20519;-79
2022/05/07 14:25:08;;;;;;;2.35;1.17;;;;;;;;;;4980286;28;20046;-79
2022/05/07 14:27:35;;;;;;;2.40;1.10;;;;;;;;;;5013093;28;20045;-79
2022/05/07 14:30:01;;;;;;;3.13;1.30;;;;;;;;;;5013068;28;20054;-80
2022/05/07 14:32:27;;;;;;;2.17;1.42;;;;;;;;;;5013149;28;20041;-80
2022/05/07 14:34:52;;;;;;;2.50;1.42;;;;;;;;;;4996762;28;20443;-79
2022/05/07 14:37:18;;;;;;;1.85;1.05;;;;;;;;;;4996478;28;20034;-79
2022/05/07 14:39:44;;;;;;;2.22;1.48;;;;;;;;;;5012667;28;20034;-79
2022/05/07 14:42:10;;;;;;;3.17;1.30;;;;;;;;;;4980238;28;20073;-79
2022/05/07 14:44:36;;;;;;;3.25;1.23;;;;;;;;;;4964490;28;20030;-79
2022/05/07 14:47:02;;;;;;;2.50;1.30;;;;;;;;;;4996443;28;20052;-79
2022/05/07 14:49:27;;;;;;;2.17;1.30;;;;;;;;;;4979918;28;20301;-80
2022/05/07 14:51:53;;;;;;;2.13;1.50;;;;;;;;;;4996111;28;20080;-79
2022/05/07 14:54:19;;;;;;;2.20;1.30;;;;;;;;;;5028979;28;20386;-79
2022/05/07 14:56:45;;;;;;;3.28;1.40;;;;;;;;;;5028760;28;20049;-80
2022/05/07 14:59:10;;;;;;;2.88;1.30;;;;;;;;;;5012710;28;20036;-80
2022/05/07 15:01:36;;;;;;;2.22;1.27;;;;;;;;;;5012430;28;20045;-80
2022/05/07 15:04:02;;;;;;;2.90;1.52;;;;;;;;;;5028815;28;20202;-80
2022/05/07 15:06:27;;;;;;;2.22;1.25;;;;;;;;;;5012301;28;20082;-80
2022/05/07 15:11:40;;;;;;;2.33;1.40;;;;;;;;;;5012009;28;20034;-79
2022/05/07 15:14:06;;;;;;;1.85;1.20;;;;;;;;;;5028846;28;20038;-79
2022/05/07 15:16:31;;;;;;;2.10;1.20;;;;;;;;;;5012118;28;20034;-79
2022/05/07 15:18:57;;;;;;;2.40;1.42;;;;;;;;;;4996039;28;20046;-79
2022/05/07 15:21:25;;;;;;;2.25;1.27;;;;;;;;;;4995541;28;20050;-80
2022/05/07 15:23:52;;;;;;;2.67;1.30;;;;;;;;;;4996418;28;20404;-79
2022/05/07 15:26:18;;;;;;;2.92;1.40;;;;;;;;;;4979097;28;20045;-80